createdAt,value
2022-08-21T00:00:44.176Z,8
2022-08-21T00:01:41.693Z,7
2022-08-21T00:02:41.712Z,6
2022-08-21T00:03:41.699Z,7
2022-08-21T00:04:54.508Z,8
2022-08-21T00:05:41.693Z,6
2022-08-21T00:06:41.701Z,7
2022-08-21T00:07:41.694Z,7
2022-08-21T00:08:41.700Z,8
2022-08-21T00:09:41.715Z,9
2022-08-21T00:10:41.695Z,7
2022-08-21T00:11:41.729Z,8
2022-08-21T00:12:41.693Z,7
2022-08-21T00:13:41.703Z,7
2022-08-21T00:14:41.786Z,10
2022-08-21T00:15:41.688Z,8
2022-08-21T00:16:41.687Z,7
2022-08-21T00:17:41.699Z,8
2022-08-21T00:18:41.694Z,6
2022-08-21T00:19:41.704Z,9
2022-08-21T00:20:41.708Z,8
2022-08-21T00:21:44.481Z,8
2022-08-21T00:22:41.697Z,8
2022-08-21T00:23:41.709Z,6
2022-08-21T00:24:41.699Z,7
2022-08-21T00:25:41.713Z,7
2022-08-21T00:26:41.724Z,6
2022-08-21T00:27:41.703Z,9
2022-08-21T00:28:41.698Z,10
2022-08-21T00:29:41.754Z,7
2022-08-21T00:30:41.714Z,7
2022-08-21T00:31:41.751Z,8
2022-08-21T00:32:41.697Z,6
2022-08-21T00:33:41.709Z,6
2022-08-21T00:34:41.717Z,6
2022-08-21T00:35:41.701Z,8
2022-08-21T00:36:41.780Z,7
2022-08-21T00:37:41.702Z,6
2022-08-21T00:38:41.705Z,5
2022-08-21T00:39:41.826Z,7
2022-08-21T00:40:41.717Z,5
2022-08-21T00:41:41.710Z,6
2022-08-21T00:42:41.694Z,5
2022-08-21T00:43:41.707Z,6
2022-08-21T00:44:41.713Z,4
2022-08-21T00:45:41.704Z,7
2022-08-21T00:46:41.705Z,8
2022-08-21T00:47:41.704Z,7
2022-08-21T00:48:41.705Z,8
2022-08-21T00:49:41.720Z,7
2022-08-21T00:50:41.755Z,7
2022-08-21T00:51:41.727Z,7
2022-08-21T00:52:41.712Z,7
2022-08-21T00:53:41.705Z,9
2022-08-21T00:54:41.726Z,8
2022-08-21T00:55:41.801Z,7
2022-08-21T00:56:41.707Z,8
2022-08-21T00:57:41.719Z,9
2022-08-21T00:58:41.719Z,8
2022-08-21T00:59:41.726Z,9
2022-08-21T01:00:41.764Z,10
2022-08-21T01:01:41.715Z,8
2022-08-21T01:02:41.713Z,8
2022-08-21T01:03:44.031Z,9
2022-08-21T01:04:41.722Z,9
2022-08-21T01:05:41.721Z,9
2022-08-21T01:06:41.727Z,8
2022-08-21T01:08:46.787Z,9
2022-08-21T01:09:41.705Z,10
2022-08-21T01:10:41.701Z,8
2022-08-21T01:11:41.713Z,11
2022-08-21T01:12:41.725Z,8
2022-08-21T01:13:41.710Z,8
2022-08-21T01:14:41.753Z,10
2022-08-21T01:15:41.731Z,9
2022-08-21T01:16:41.719Z,10
2022-08-21T01:17:41.718Z,9
2022-08-21T01:18:41.748Z,9
2022-08-21T01:19:41.736Z,7
2022-08-21T01:20:41.703Z,8
2022-08-21T01:21:41.726Z,9
2022-08-21T01:22:41.720Z,11
2022-08-21T01:23:41.730Z,10
2022-08-21T01:24:41.765Z,6
2022-08-21T01:25:41.723Z,7
2022-08-21T01:26:41.710Z,6
2022-08-21T01:27:41.706Z,8
2022-08-21T01:28:41.722Z,5
2022-08-21T01:29:41.730Z,5
2022-08-21T01:30:41.705Z,6
2022-08-21T01:31:41.731Z,6
2022-08-21T01:32:41.717Z,6
2022-08-21T01:33:41.723Z,6
2022-08-21T01:34:41.740Z,7
2022-08-21T01:35:41.705Z,8
2022-08-21T01:36:41.729Z,6
2022-08-21T01:37:41.723Z,11
2022-08-21T01:38:41.735Z,9
2022-08-21T01:39:41.774Z,9
2022-08-21T01:40:41.733Z,8
2022-08-21T01:41:41.721Z,8
2022-08-21T01:43:41.769Z,9
2022-08-21T01:44:41.756Z,7
2022-08-21T01:45:41.715Z,9
2022-08-21T01:46:41.732Z,10
2022-08-21T01:47:41.731Z,9
2022-08-21T01:48:41.796Z,8
2022-08-21T01:49:41.739Z,9
2022-08-21T01:50:41.710Z,10
2022-08-21T01:51:41.737Z,8
2022-08-21T01:52:41.739Z,9
2022-08-21T01:53:41.706Z,9
2022-08-21T01:54:41.729Z,12
2022-08-21T01:55:52.001Z,9
2022-08-21T01:56:41.711Z,10
2022-08-21T01:57:41.716Z,11
2022-08-21T01:58:41.725Z,10
2022-08-21T01:59:41.730Z,9
2022-08-21T02:00:41.783Z,9
2022-08-21T02:01:41.733Z,12
2022-08-21T02:02:41.715Z,10
2022-08-21T02:03:41.720Z,6
2022-08-21T02:04:41.776Z,8
2022-08-21T02:05:41.713Z,9
2022-08-21T02:06:41.741Z,9
2022-08-21T02:07:41.724Z,11
2022-08-21T02:08:41.733Z,9
2022-08-21T02:09:41.731Z,5
2022-08-21T02:10:41.735Z,10
2022-08-21T02:11:41.748Z,10
2022-08-21T02:12:41.721Z,11
2022-08-21T02:13:41.726Z,8
2022-08-21T02:14:41.760Z,10
2022-08-21T02:15:41.729Z,10
2022-08-21T02:16:41.716Z,12
2022-08-21T02:17:41.722Z,11
2022-08-21T02:18:41.730Z,9
2022-08-21T02:19:41.743Z,10
2022-08-21T02:20:41.725Z,7
2022-08-21T02:21:41.746Z,9
2022-08-21T02:22:41.731Z,9
2022-08-21T02:23:41.714Z,7
2022-08-21T02:24:53.955Z,7
2022-08-21T02:25:41.741Z,9
2022-08-21T02:26:41.715Z,7
2022-08-21T02:27:41.727Z,8
2022-08-21T02:28:41.730Z,10
2022-08-21T02:29:41.753Z,10
2022-08-21T02:30:41.776Z,13
2022-08-21T02:31:41.730Z,11
2022-08-21T02:32:41.726Z,7
2022-08-21T02:33:41.722Z,7
2022-08-21T02:34:41.746Z,7
2022-08-21T02:35:41.757Z,6
2022-08-21T02:36:41.737Z,9
2022-08-21T02:37:41.742Z,6
2022-08-21T02:38:41.727Z,7
2022-08-21T02:39:43.004Z,10
2022-08-21T02:40:47.953Z,7
2022-08-21T02:41:41.732Z,7
2022-08-21T02:42:41.727Z,6
2022-08-21T02:43:41.729Z,8
2022-08-21T02:44:41.747Z,8
2022-08-21T02:45:41.733Z,8
2022-08-21T02:46:41.737Z,8
2022-08-21T02:47:41.727Z,9
2022-08-21T02:48:41.752Z,10
2022-08-21T02:49:41.721Z,11
2022-08-21T02:50:41.749Z,9
2022-08-21T02:51:41.742Z,8
2022-08-21T02:52:41.727Z,7
2022-08-21T02:53:41.724Z,7
2022-08-21T02:54:41.738Z,7
2022-08-21T02:55:41.732Z,5
2022-08-21T02:56:41.758Z,6
2022-08-21T02:57:41.724Z,6
2022-08-21T02:58:41.728Z,7
2022-08-21T02:59:41.802Z,5
2022-08-21T03:00:41.731Z,4
2022-08-21T03:01:41.822Z,6
2022-08-21T03:02:41.742Z,9
2022-08-21T03:03:41.758Z,9
2022-08-21T03:04:46.410Z,8
2022-08-21T03:05:41.756Z,8
2022-08-21T03:06:41.789Z,7
2022-08-21T03:07:41.728Z,10
2022-08-21T03:08:41.731Z,6
2022-08-21T03:09:50.731Z,6
2022-08-21T03:10:41.742Z,11
2022-08-21T03:11:41.731Z,8
2022-08-21T03:12:41.742Z,7
2022-08-21T03:13:41.778Z,8
2022-08-21T03:14:41.740Z,9
2022-08-21T03:15:41.758Z,8
2022-08-21T03:16:41.731Z,7
2022-08-21T03:17:41.747Z,7
2022-08-21T03:18:41.807Z,9
2022-08-21T03:19:41.736Z,9
2022-08-21T03:20:41.747Z,8
2022-08-21T03:21:41.744Z,12
2022-08-21T03:22:41.754Z,8
2022-08-21T03:23:41.730Z,8
2022-08-21T03:24:42.930Z,7
2022-08-21T03:25:41.833Z,6
2022-08-21T03:26:41.733Z,10
2022-08-21T03:27:41.729Z,11
2022-08-21T03:28:41.730Z,9
2022-08-21T03:29:41.742Z,9
2022-08-21T03:30:41.754Z,12
2022-08-21T03:31:41.741Z,10
2022-08-21T03:32:41.841Z,8
2022-08-21T03:33:41.739Z,7
2022-08-21T03:34:41.740Z,10
2022-08-21T03:35:41.783Z,10
2022-08-21T03:36:41.755Z,10
2022-08-21T03:37:41.738Z,10
2022-08-21T03:38:41.725Z,9
2022-08-21T03:39:48.956Z,8
2022-08-21T03:40:41.757Z,8
2022-08-21T03:41:41.747Z,11
2022-08-21T03:42:41.751Z,10
2022-08-21T03:43:41.756Z,8
2022-08-21T03:44:41.742Z,11
2022-08-21T03:45:41.749Z,9
2022-08-21T03:46:41.741Z,10
2022-08-21T03:47:41.738Z,8
2022-08-21T03:48:41.730Z,8
2022-08-21T03:49:41.731Z,10
2022-08-21T03:50:41.750Z,9
2022-08-21T03:51:41.758Z,11
2022-08-21T03:52:41.742Z,11
2022-08-21T03:53:41.734Z,12
2022-08-21T03:54:41.752Z,12
2022-08-21T03:55:41.796Z,11
2022-08-21T03:56:41.744Z,8
2022-08-21T03:57:41.741Z,11
2022-08-21T03:58:41.742Z,11
2022-08-21T03:59:41.740Z,12
2022-08-21T04:00:41.755Z,12
2022-08-21T04:01:41.813Z,11
2022-08-21T04:02:41.726Z,10
2022-08-21T04:03:41.766Z,9
2022-08-21T04:04:41.732Z,11
2022-08-21T04:05:41.765Z,10
2022-08-21T04:06:41.768Z,6
2022-08-21T04:08:41.738Z,10
2022-08-21T04:09:41.754Z,12
2022-08-21T04:10:41.761Z,6
2022-08-21T04:11:41.779Z,11
2022-08-21T04:12:41.742Z,10
2022-08-21T04:13:44.382Z,9
2022-08-21T04:14:41.748Z,6
2022-08-21T04:15:41.758Z,10
2022-08-21T04:16:41.810Z,11
2022-08-21T04:18:41.976Z,7
2022-08-21T04:19:41.749Z,7
2022-08-21T04:21:41.766Z,9
2022-08-21T04:22:41.768Z,11
2022-08-21T04:23:41.753Z,8
2022-08-21T04:24:41.734Z,6
2022-08-21T04:25:41.764Z,9
2022-08-21T04:26:41.750Z,9
2022-08-21T04:27:41.741Z,8
2022-08-21T04:28:41.770Z,7
2022-08-21T04:29:41.747Z,10
2022-08-21T04:30:41.767Z,7
2022-08-21T04:31:41.746Z,7
2022-08-21T04:32:41.751Z,7
2022-08-21T04:33:41.749Z,9
2022-08-21T04:34:41.779Z,6
2022-08-21T04:35:41.764Z,8
2022-08-21T04:36:41.778Z,7
2022-08-21T04:37:42.457Z,8
2022-08-21T04:38:44.706Z,8
2022-08-21T04:40:41.773Z,9
2022-08-21T04:41:41.740Z,9
2022-08-21T04:42:41.750Z,10
2022-08-21T04:43:41.741Z,9
2022-08-21T04:44:41.753Z,8
2022-08-21T04:45:41.764Z,9
2022-08-21T04:46:41.737Z,6
2022-08-21T04:47:52.844Z,7
2022-08-21T04:48:41.762Z,9
2022-08-21T04:49:41.755Z,10
2022-08-21T04:50:41.765Z,8
2022-08-21T04:51:41.764Z,11
2022-08-21T04:52:41.755Z,10
2022-08-21T04:53:41.769Z,10
2022-08-21T04:54:41.743Z,8
2022-08-21T04:55:41.764Z,9
2022-08-21T04:56:41.752Z,8
2022-08-21T04:57:48.644Z,7
2022-08-21T04:58:41.758Z,8
2022-08-21T04:59:41.751Z,10
2022-08-21T05:00:41.773Z,8
2022-08-21T05:01:41.843Z,10
2022-08-21T05:02:41.754Z,11
2022-08-21T05:03:41.764Z,10
2022-08-21T05:04:41.750Z,8
2022-08-21T05:05:41.772Z,10
2022-08-21T05:06:41.765Z,11
2022-08-21T05:07:43.161Z,10
2022-08-21T05:08:41.763Z,9
2022-08-21T05:09:41.757Z,10
2022-08-21T05:10:41.773Z,11
2022-08-21T05:11:41.754Z,10
2022-08-21T05:12:41.767Z,11
2022-08-21T05:13:41.767Z,9
2022-08-21T05:14:41.787Z,12
2022-08-21T05:15:41.762Z,8
2022-08-21T05:16:41.772Z,11
2022-08-21T05:18:41.755Z,12
2022-08-21T05:19:41.747Z,8
2022-08-21T05:20:41.787Z,8
2022-08-21T05:21:41.777Z,11
2022-08-21T05:22:41.758Z,6
2022-08-21T05:23:41.746Z,9
2022-08-21T05:24:41.750Z,6
2022-08-21T05:25:41.819Z,11
2022-08-21T05:26:46.518Z,11
2022-08-21T05:27:42.813Z,9
2022-08-21T05:29:41.752Z,7
2022-08-21T05:30:41.857Z,9
2022-08-21T05:31:41.755Z,9
2022-08-21T05:32:41.756Z,8
2022-08-21T05:33:41.773Z,9
2022-08-21T05:34:41.752Z,11
2022-08-21T05:35:41.777Z,9
2022-08-21T05:36:41.805Z,10
2022-08-21T05:37:41.752Z,10
2022-08-21T05:38:41.757Z,11
2022-08-21T05:40:20.550Z,9
2022-08-21T05:40:41.854Z,10
2022-08-21T05:41:41.757Z,8
2022-08-21T05:42:41.770Z,11
2022-08-21T05:43:41.761Z,11
2022-08-21T05:44:41.754Z,11
2022-08-21T05:45:44.157Z,9
2022-08-21T05:46:41.752Z,10
2022-08-21T05:47:41.753Z,10
2022-08-21T05:48:41.816Z,6
2022-08-21T05:49:41.761Z,5
2022-08-21T05:50:41.845Z,10
2022-08-21T05:51:41.774Z,5
2022-08-21T05:52:41.762Z,5
2022-08-21T05:53:41.775Z,6
2022-08-21T05:54:41.755Z,6
2022-08-21T05:55:45.712Z,6
2022-08-21T05:56:41.773Z,4
2022-08-21T05:57:41.771Z,4
2022-08-21T05:58:41.760Z,4
2022-08-21T05:59:41.770Z,5
2022-08-21T06:00:41.874Z,6
2022-08-21T06:01:41.827Z,6
2022-08-21T06:02:41.765Z,5
2022-08-21T06:03:41.773Z,6
2022-08-21T06:04:41.769Z,5
2022-08-21T06:05:41.799Z,5
2022-08-21T06:06:41.785Z,5
2022-08-21T06:07:41.766Z,4
2022-08-21T06:08:41.764Z,5
2022-08-21T06:09:41.764Z,6
2022-08-21T06:10:41.791Z,4
2022-08-21T06:11:41.945Z,5
2022-08-21T06:12:41.785Z,5
2022-08-21T06:13:41.766Z,4
2022-08-21T06:14:41.777Z,4
2022-08-21T06:15:41.821Z,4
2022-08-21T06:16:41.777Z,4
2022-08-21T06:17:41.766Z,4
2022-08-21T06:18:41.781Z,5
2022-08-21T06:19:41.811Z,7
2022-08-21T06:20:41.822Z,5
2022-08-21T06:21:41.790Z,4
2022-08-21T06:22:41.763Z,5
2022-08-21T06:23:41.781Z,4
2022-08-21T06:24:41.771Z,5
2022-08-21T06:25:41.790Z,5
2022-08-21T06:26:41.789Z,4
2022-08-21T06:27:41.767Z,5
2022-08-21T06:28:42.104Z,4
2022-08-21T06:29:44.589Z,4
2022-08-21T06:30:42.027Z,9
2022-08-21T06:31:41.780Z,7
2022-08-21T06:32:41.777Z,6
2022-08-21T06:33:41.784Z,8
2022-08-21T06:34:41.780Z,7
2022-08-21T06:35:41.808Z,7
2022-08-21T06:36:41.793Z,7
2022-08-21T06:37:41.769Z,8
2022-08-21T06:38:41.776Z,8
2022-08-21T06:39:45.155Z,6
2022-08-21T06:40:46.955Z,7
2022-08-21T06:41:41.782Z,7
2022-08-21T06:42:42.822Z,10
2022-08-21T06:43:41.767Z,7
2022-08-21T06:44:41.778Z,5
2022-08-21T06:45:41.795Z,9
2022-08-21T06:46:41.812Z,7
2022-08-21T06:47:41.778Z,8
2022-08-21T06:48:41.779Z,6
2022-08-21T06:49:41.778Z,8
2022-08-21T06:50:41.801Z,9
2022-08-21T06:51:41.793Z,6
2022-08-21T06:52:41.795Z,6
2022-08-21T06:53:41.789Z,5
2022-08-21T06:54:41.777Z,5
2022-08-21T06:55:41.813Z,5
2022-08-21T06:56:41.790Z,5
2022-08-21T06:57:41.773Z,5
2022-08-21T06:58:41.803Z,5
2022-08-21T06:59:41.779Z,4
2022-08-21T07:00:41.798Z,4
2022-08-21T07:01:41.875Z,5
2022-08-21T07:02:41.779Z,5
2022-08-21T07:03:41.793Z,6
2022-08-21T07:04:41.775Z,7
2022-08-21T07:05:41.809Z,4
2022-08-21T07:06:41.802Z,4
2022-08-21T07:07:41.785Z,4
2022-08-21T07:08:41.779Z,4
2022-08-21T07:09:41.787Z,4
2022-08-21T07:10:41.779Z,5
2022-08-21T07:11:44.189Z,6
2022-08-21T07:12:41.791Z,6
2022-08-21T07:13:41.779Z,4
2022-08-21T07:14:41.792Z,4
2022-08-21T07:15:41.803Z,5
2022-08-21T07:16:41.780Z,6
2022-08-21T07:17:41.794Z,5
2022-08-21T07:18:41.776Z,5
2022-08-21T07:19:41.902Z,6
2022-08-21T07:20:41.795Z,8
2022-08-21T07:21:41.814Z,9
2022-08-21T07:22:41.774Z,10
2022-08-21T07:23:41.787Z,8
2022-08-21T07:24:41.799Z,5
2022-08-21T07:25:41.795Z,7
2022-08-21T07:26:41.777Z,5
2022-08-21T07:27:41.785Z,5
2022-08-21T07:28:41.800Z,6
2022-08-21T07:29:41.827Z,5
2022-08-21T07:30:41.818Z,6
2022-08-21T07:31:41.791Z,4
2022-08-21T07:32:41.794Z,6
2022-08-21T07:33:41.806Z,4
2022-08-21T07:34:41.819Z,4
2022-08-21T07:35:41.822Z,6
2022-08-21T07:36:41.938Z,5
2022-08-21T07:37:41.795Z,7
2022-08-21T07:38:41.783Z,6
2022-08-21T07:39:41.826Z,6
2022-08-21T07:40:41.809Z,5
2022-08-21T07:41:41.788Z,4
2022-08-21T07:42:41.793Z,8
2022-08-21T07:43:46.213Z,6
2022-08-21T07:44:41.785Z,4
2022-08-21T07:45:41.800Z,5
2022-08-21T07:46:41.791Z,5
2022-08-21T07:47:42.944Z,5
2022-08-21T07:48:41.786Z,6
2022-08-21T07:49:41.782Z,5
2022-08-21T07:50:41.818Z,5
2022-08-21T07:51:41.859Z,6
2022-08-21T07:52:41.801Z,5
2022-08-21T07:53:41.784Z,5
2022-08-21T07:54:41.791Z,5
2022-08-21T07:55:41.809Z,5
2022-08-21T07:56:41.798Z,5
2022-08-21T07:57:41.792Z,7
2022-08-21T07:58:41.805Z,5
2022-08-21T07:59:41.786Z,5
2022-08-21T08:00:41.818Z,6
2022-08-21T08:01:41.913Z,6
2022-08-21T08:02:41.810Z,6
2022-08-21T08:03:41.810Z,6
2022-08-21T08:04:50.672Z,5
2022-08-21T08:05:41.818Z,6
2022-08-21T08:06:41.829Z,6
2022-08-21T08:07:41.801Z,6
2022-08-21T08:08:41.916Z,7
2022-08-21T08:09:41.805Z,6
2022-08-21T08:10:41.844Z,5
2022-08-21T08:11:41.799Z,9
2022-08-21T08:12:41.810Z,4
2022-08-21T08:13:41.800Z,6
2022-08-21T08:14:41.798Z,6
2022-08-21T08:15:41.843Z,7
2022-08-21T08:16:41.796Z,5
2022-08-21T08:17:41.806Z,8
2022-08-21T08:18:41.806Z,8
2022-08-21T08:19:41.807Z,7
2022-08-21T08:20:41.834Z,6
2022-08-21T08:21:41.833Z,6
2022-08-21T08:22:41.806Z,9
2022-08-21T08:23:41.809Z,6
2022-08-21T08:24:41.807Z,5
2022-08-21T08:25:41.835Z,8
2022-08-21T08:26:41.804Z,6
2022-08-21T08:27:41.807Z,6
2022-08-21T08:28:41.799Z,7
2022-08-21T08:29:41.827Z,5
2022-08-21T08:30:41.825Z,5
2022-08-21T08:31:41.861Z,9
2022-08-21T08:32:41.811Z,8
2022-08-21T08:33:41.815Z,4
2022-08-21T08:34:41.809Z,5
2022-08-21T08:35:41.839Z,6
2022-08-21T08:36:41.859Z,6
2022-08-21T08:37:41.933Z,6
2022-08-21T08:38:41.820Z,4
2022-08-21T08:39:41.840Z,5
2022-08-21T08:40:43.002Z,6
2022-08-21T08:41:41.811Z,5
2022-08-21T08:42:41.819Z,5
2022-08-21T08:43:41.813Z,8
2022-08-21T08:44:41.810Z,5
2022-08-21T08:45:41.848Z,8
2022-08-21T08:46:41.816Z,6
2022-08-21T08:47:41.810Z,6
2022-08-21T08:48:41.817Z,7
2022-08-21T08:49:41.808Z,4
2022-08-21T08:50:41.840Z,4
2022-08-21T08:52:41.838Z,5
2022-08-21T08:53:41.820Z,5
2022-08-21T08:54:41.817Z,5
2022-08-21T08:55:41.851Z,6
2022-08-21T08:56:41.844Z,4
2022-08-21T08:57:41.822Z,5
2022-08-21T08:58:41.825Z,6
2022-08-21T08:59:41.816Z,5
2022-08-21T09:00:41.833Z,5
2022-08-21T09:01:41.880Z,5
2022-08-21T09:02:41.825Z,6
2022-08-21T09:03:41.820Z,6
2022-08-21T09:04:41.823Z,5
2022-08-21T09:05:41.847Z,9
2022-08-21T09:06:41.870Z,5
2022-08-21T09:07:41.821Z,5
2022-08-21T09:08:41.833Z,4
2022-08-21T09:09:41.825Z,6
2022-08-21T09:10:41.832Z,6
2022-08-21T09:11:41.829Z,6
2022-08-21T09:12:41.821Z,6
2022-08-21T09:13:41.813Z,6
2022-08-21T09:14:41.828Z,5
2022-08-21T09:15:41.869Z,4
2022-08-21T09:16:41.828Z,7
2022-08-21T09:17:41.835Z,5
2022-08-21T09:18:41.833Z,5
2022-08-21T09:19:41.839Z,4
2022-08-21T09:20:41.859Z,5
2022-08-21T09:21:41.824Z,6
2022-08-21T09:22:41.860Z,4
2022-08-21T09:23:41.841Z,5
2022-08-21T09:24:41.828Z,6
2022-08-21T09:25:41.853Z,6
2022-08-21T09:26:41.839Z,7
2022-08-21T09:27:41.825Z,5
2022-08-21T09:28:41.882Z,5
2022-08-21T09:29:41.832Z,3
2022-08-21T09:30:41.835Z,4
2022-08-21T09:31:41.835Z,6
2022-08-21T09:32:41.836Z,5
2022-08-21T09:33:41.899Z,4
2022-08-21T09:34:41.824Z,5
2022-08-21T09:35:41.886Z,3
2022-08-21T09:36:41.835Z,3
2022-08-21T09:37:41.852Z,5
2022-08-21T09:38:41.833Z,6
2022-08-21T09:39:45.606Z,3
2022-08-21T09:40:41.962Z,4
2022-08-21T09:41:41.827Z,3
2022-08-21T09:42:41.839Z,4
2022-08-21T09:43:41.828Z,6
2022-08-21T09:44:41.836Z,3
2022-08-21T09:45:41.867Z,3
2022-08-21T09:46:41.837Z,4
2022-08-21T09:47:41.830Z,3
2022-08-21T09:48:41.848Z,5
2022-08-21T09:49:41.843Z,6
2022-08-21T09:50:41.851Z,5
2022-08-21T09:51:41.844Z,5
2022-08-21T09:52:41.839Z,4
2022-08-21T09:53:41.837Z,7
2022-08-21T09:54:41.836Z,4
2022-08-21T09:55:41.862Z,5
2022-08-21T09:56:41.840Z,6
2022-08-21T09:57:46.438Z,5
2022-08-21T09:58:41.870Z,5
2022-08-21T09:59:41.844Z,2
2022-08-21T10:00:41.962Z,4
2022-08-21T10:01:41.837Z,7
2022-08-21T10:02:41.859Z,4
2022-08-21T10:03:41.848Z,2
2022-08-21T10:04:41.841Z,5
2022-08-21T10:05:41.881Z,5
2022-08-21T10:06:41.830Z,3
2022-08-21T10:07:41.836Z,5
2022-08-21T10:08:41.917Z,6
2022-08-21T10:09:41.873Z,6
2022-08-21T10:10:41.870Z,4
2022-08-21T10:11:41.857Z,3
2022-08-21T10:12:41.851Z,5
2022-08-21T10:13:41.845Z,5
2022-08-21T10:14:41.842Z,4
2022-08-21T10:15:41.881Z,6
2022-08-21T10:16:41.892Z,5
2022-08-21T10:17:41.846Z,5
2022-08-21T10:18:41.884Z,5
2022-08-21T10:19:41.859Z,6
2022-08-21T10:20:41.873Z,6
2022-08-21T10:21:41.854Z,4
2022-08-21T10:22:41.856Z,5
2022-08-21T10:23:41.857Z,6
2022-08-21T10:24:41.845Z,4
2022-08-21T10:25:50.488Z,3
2022-08-21T10:26:41.869Z,4
2022-08-21T10:27:41.843Z,5
2022-08-21T10:28:41.858Z,4
2022-08-21T10:29:41.860Z,7
2022-08-21T10:30:41.866Z,3
2022-08-21T10:31:41.870Z,4
2022-08-21T10:32:41.858Z,4
2022-08-21T10:33:41.854Z,4
2022-08-21T10:34:41.887Z,2
2022-08-21T10:35:41.871Z,5
2022-08-21T10:36:41.850Z,3
2022-08-21T10:37:41.862Z,3
2022-08-21T10:39:23.420Z,5
2022-08-21T10:39:41.886Z,5
2022-08-21T10:40:41.906Z,4
2022-08-21T10:41:41.856Z,2
2022-08-21T10:42:41.855Z,5
2022-08-21T10:43:41.883Z,5
2022-08-21T10:44:41.855Z,2
2022-08-21T10:45:41.928Z,4
2022-08-21T10:46:41.857Z,6
2022-08-21T10:47:41.850Z,4
2022-08-21T10:48:41.861Z,3
2022-08-21T10:49:41.858Z,5
2022-08-21T10:50:41.899Z,7
2022-08-21T10:51:41.863Z,4
2022-08-21T10:52:44.150Z,4
2022-08-21T10:53:41.861Z,4
2022-08-21T10:54:41.873Z,5
2022-08-21T10:55:41.884Z,4
2022-08-21T10:56:41.864Z,3
2022-08-21T10:57:41.888Z,3
2022-08-21T10:58:41.853Z,2
2022-08-21T10:59:41.872Z,5
2022-08-21T11:00:43.022Z,3
2022-08-21T11:01:41.873Z,5
2022-08-21T11:02:41.878Z,4
2022-08-21T11:03:41.863Z,4
2022-08-21T11:04:48.928Z,2
2022-08-21T11:05:41.900Z,3
2022-08-21T11:06:41.866Z,4
2022-08-21T11:07:41.901Z,6
2022-08-21T11:08:43.455Z,4
2022-08-21T11:09:41.860Z,4
2022-08-21T11:10:42.547Z,3
2022-08-21T11:11:46.539Z,7
2022-08-21T11:12:41.862Z,3
2022-08-21T11:13:41.875Z,4
2022-08-21T11:14:41.859Z,4
2022-08-21T11:15:41.909Z,3
2022-08-21T11:16:41.868Z,4
2022-08-21T11:17:41.879Z,2
2022-08-21T11:18:41.869Z,3
2022-08-21T11:19:41.866Z,3
2022-08-21T11:20:41.897Z,4
2022-08-21T11:21:41.882Z,5
2022-08-21T11:22:41.896Z,4
2022-08-21T11:23:41.880Z,3
2022-08-21T11:24:41.896Z,3
2022-08-21T11:25:41.942Z,3
2022-08-21T11:26:41.900Z,4
2022-08-21T11:27:41.875Z,4
2022-08-21T11:28:41.871Z,4
2022-08-21T11:29:41.873Z,4
2022-08-21T11:30:41.890Z,4
2022-08-21T11:31:41.879Z,3
2022-08-21T11:32:41.888Z,3
2022-08-21T11:33:41.889Z,3
2022-08-21T11:34:41.889Z,4
2022-08-21T11:35:41.925Z,3
2022-08-21T11:36:46.550Z,3
2022-08-21T11:37:41.877Z,5
2022-08-21T11:38:41.882Z,3
2022-08-21T11:39:41.925Z,4
2022-08-21T11:40:41.927Z,3
2022-08-21T11:41:41.960Z,4
2022-08-21T11:42:41.877Z,4
2022-08-21T11:43:41.879Z,3
2022-08-21T11:44:41.882Z,3
2022-08-21T11:45:41.903Z,4
2022-08-21T11:46:41.949Z,4
2022-08-21T11:47:41.906Z,3
2022-08-21T11:48:41.879Z,4
2022-08-21T11:49:41.880Z,2
2022-08-21T11:50:41.909Z,2
2022-08-21T11:51:41.907Z,3
2022-08-21T11:52:41.878Z,3
2022-08-21T11:53:41.886Z,6
2022-08-21T11:54:41.878Z,3
2022-08-21T11:55:41.908Z,4
2022-08-21T11:56:41.899Z,3
2022-08-21T11:57:41.892Z,4
2022-08-21T11:58:41.913Z,4
2022-08-21T11:59:41.881Z,3
2022-08-21T12:00:48.942Z,3
2022-08-21T12:01:41.962Z,3
2022-08-21T12:02:41.889Z,3
2022-08-21T12:03:42.851Z,3
2022-08-21T12:04:41.891Z,4
2022-08-21T12:05:41.933Z,4
2022-08-21T12:06:41.886Z,3
2022-08-21T12:07:41.907Z,3
2022-08-21T12:08:41.895Z,4
2022-08-21T12:09:41.893Z,6
2022-08-21T12:10:41.932Z,3
2022-08-21T12:11:41.885Z,3
2022-08-21T12:12:41.902Z,5
2022-08-21T12:13:42.646Z,3
2022-08-21T12:14:41.900Z,5
2022-08-21T12:15:41.904Z,3
2022-08-21T12:16:41.908Z,5
2022-08-21T12:17:41.887Z,5
2022-08-21T12:18:41.885Z,3
2022-08-21T12:19:41.892Z,3
2022-08-21T12:20:50.129Z,3
2022-08-21T12:21:41.894Z,2
2022-08-21T12:22:42.138Z,3
2022-08-21T12:23:41.898Z,4
2022-08-21T12:24:41.889Z,3
2022-08-21T12:25:42.152Z,2
2022-08-21T12:26:41.902Z,3
2022-08-21T12:27:41.898Z,3
2022-08-21T12:28:41.894Z,5
2022-08-21T12:29:41.910Z,3
2022-08-21T12:30:41.909Z,3
2022-08-21T12:31:41.891Z,4
2022-08-21T12:32:41.897Z,3
2022-08-21T12:34:41.903Z,3
2022-08-21T12:35:41.924Z,5
2022-08-21T12:36:41.968Z,4
2022-08-21T12:37:41.904Z,2
2022-08-21T12:38:41.910Z,4
2022-08-21T12:39:41.943Z,4
2022-08-21T12:40:41.912Z,3
2022-08-21T12:41:41.923Z,4
2022-08-21T12:42:41.898Z,4
2022-08-21T12:43:41.901Z,5
2022-08-21T12:44:41.904Z,5
2022-08-21T12:45:41.929Z,2
2022-08-21T12:46:41.911Z,3
2022-08-21T12:47:41.907Z,4
2022-08-21T12:49:41.901Z,5
2022-08-21T12:50:41.937Z,5
2022-08-21T12:51:41.903Z,2
2022-08-21T12:52:41.907Z,4
2022-08-21T12:53:41.902Z,5
2022-08-21T12:54:41.905Z,2
2022-08-21T12:55:41.927Z,5
2022-08-21T12:56:41.909Z,3
2022-08-21T12:57:41.911Z,5
2022-08-21T12:58:41.901Z,3
2022-08-21T12:59:41.904Z,3
2022-08-21T13:01:42.220Z,2
2022-08-21T13:02:41.929Z,3
2022-08-21T13:03:41.940Z,4
2022-08-21T13:04:41.915Z,3
2022-08-21T13:05:41.940Z,3
2022-08-21T13:06:41.909Z,3
2022-08-21T13:07:41.912Z,2
2022-08-21T13:08:46.725Z,2
2022-08-21T13:09:41.928Z,2
2022-08-21T13:10:41.942Z,3
2022-08-21T13:11:41.900Z,2
2022-08-21T13:12:41.922Z,3
2022-08-21T13:13:47.144Z,4
2022-08-21T13:14:45.820Z,3
2022-08-21T13:15:42.015Z,2
2022-08-21T13:16:41.919Z,3
2022-08-21T13:17:41.919Z,2
2022-08-21T13:18:42.089Z,4
2022-08-21T13:19:41.916Z,3
2022-08-21T13:20:41.987Z,4
2022-08-21T13:21:41.920Z,3
2022-08-21T13:22:41.925Z,2
2022-08-21T13:23:41.917Z,3
2022-08-21T13:24:43.371Z,3
2022-08-21T13:25:41.933Z,4
2022-08-21T13:26:41.918Z,4
2022-08-21T13:27:41.935Z,4
2022-08-21T13:28:41.921Z,3
2022-08-21T13:29:41.917Z,3
2022-08-21T13:30:41.955Z,4
2022-08-21T13:31:41.952Z,3
2022-08-21T13:32:41.949Z,3
2022-08-21T13:33:41.920Z,3
2022-08-21T13:34:41.917Z,5
2022-08-21T13:35:41.940Z,2
2022-08-21T13:36:41.930Z,2
2022-08-21T13:37:41.952Z,2
2022-08-21T13:38:42.018Z,3
2022-08-21T13:39:41.963Z,2
2022-08-21T13:40:41.928Z,2
2022-08-21T13:41:41.933Z,3
2022-08-21T13:42:41.938Z,3
2022-08-21T13:43:41.936Z,4
2022-08-21T13:44:41.912Z,3
2022-08-21T13:45:41.943Z,3
2022-08-21T13:46:41.923Z,3
2022-08-21T13:47:41.940Z,4
2022-08-21T13:48:41.922Z,4
2022-08-21T13:49:41.942Z,4
2022-08-21T13:50:41.941Z,2
2022-08-21T13:51:41.972Z,2
2022-08-21T13:52:42.212Z,4
2022-08-21T13:53:42.036Z,2
2022-08-21T13:54:42.070Z,3
2022-08-21T13:55:42.266Z,3
2022-08-21T13:56:42.327Z,2
2022-08-21T13:57:41.927Z,4
2022-08-21T13:58:41.926Z,4
2022-08-21T13:59:41.992Z,5
2022-08-21T14:00:41.953Z,2
2022-08-21T14:01:41.973Z,3
2022-08-21T14:03:41.935Z,2
2022-08-21T14:04:41.935Z,4
2022-08-21T14:05:41.961Z,5
2022-08-21T14:06:41.944Z,4
2022-08-21T14:07:41.954Z,4
2022-08-21T14:08:41.928Z,5
2022-08-21T14:09:41.938Z,3
2022-08-21T14:10:41.957Z,2
2022-08-21T14:11:41.932Z,2
2022-08-21T14:12:41.989Z,3
2022-08-21T14:13:41.953Z,5
2022-08-21T14:14:41.946Z,4
2022-08-21T14:15:41.947Z,3
2022-08-21T14:16:41.939Z,3
2022-08-21T14:17:41.933Z,2
2022-08-21T14:18:41.942Z,2
2022-08-21T14:19:41.934Z,3
2022-08-21T14:20:41.979Z,3
2022-08-21T14:21:41.941Z,3
2022-08-21T14:22:42.030Z,3
2022-08-21T14:23:41.952Z,3
2022-08-21T14:24:41.954Z,3
2022-08-21T14:25:44.016Z,2
2022-08-21T14:26:41.949Z,2
2022-08-21T14:27:41.940Z,3
2022-08-21T14:28:41.947Z,4
2022-08-21T14:29:43.885Z,3
2022-08-21T14:30:41.967Z,4
2022-08-21T14:31:43.141Z,2
2022-08-21T14:32:44.843Z,2
2022-08-21T14:33:41.992Z,3
2022-08-21T14:34:41.951Z,3
2022-08-21T14:35:41.976Z,2
2022-08-21T14:36:41.955Z,2
2022-08-21T14:37:41.945Z,3
2022-08-21T14:38:41.972Z,3
2022-08-21T14:39:45.140Z,6
2022-08-21T14:40:41.978Z,3
2022-08-21T14:41:41.947Z,3
2022-08-21T14:42:41.947Z,3
2022-08-21T14:43:41.948Z,2
2022-08-21T14:44:41.973Z,4
2022-08-21T14:45:41.969Z,4
2022-08-21T14:46:56.143Z,3
2022-08-21T14:47:41.948Z,4
2022-08-21T14:48:41.963Z,4
2022-08-21T14:49:41.965Z,2
2022-08-21T14:50:42.025Z,3
2022-08-21T14:51:44.472Z,2
2022-08-21T14:52:41.945Z,4
2022-08-21T14:53:41.946Z,2
2022-08-21T14:54:41.953Z,2
2022-08-21T14:55:41.970Z,3
2022-08-21T14:56:41.955Z,4